createdAt,value
2018-06-05T00:01:46.009Z,21.48
2018-06-05T00:04:16.653Z,21.43
2018-06-05T00:06:46.565Z,21.39
2018-06-05T00:09:16.904Z,21.36
2018-06-05T00:11:47.149Z,21.31
2018-06-05T00:14:20.541Z,21.22
2018-06-05T00:16:50.687Z,21.08
2018-06-05T00:19:20.790Z,20.97
2018-06-05T00:21:50.863Z,20.91
2018-06-05T00:24:21.925Z,20.87
2018-06-05T00:26:52.033Z,20.85
2018-06-05T00:29:22.378Z,20.83
2018-06-05T00:31:52.494Z,20.83
2018-06-05T00:34:22.635Z,20.79
2018-06-05T00:36:52.734Z,20.75
2018-06-05T00:39:22.978Z,20.71
2018-06-05T00:41:53.055Z,20.63
2018-06-05T00:44:23.195Z,20.57
2018-06-05T00:46:53.336Z,20.57
2018-06-05T00:49:23.518Z,20.58
2018-06-05T00:52:05.154Z,20.54
2018-06-05T00:54:35.038Z,20.52
2018-06-05T00:57:05.142Z,20.48
2018-06-05T00:59:35.271Z,20.45
2018-06-05T01:02:05.402Z,20.43
2018-06-05T01:04:35.728Z,20.38
2018-06-05T01:07:05.850Z,20.35
2018-06-05T01:09:35.779Z,20.34
2018-06-05T01:12:05.871Z,20.32
2018-06-05T01:14:36.665Z,20.25
2018-06-05T01:17:06.822Z,20.21
2018-06-05T01:19:36.983Z,20.17
2018-06-05T01:22:07.416Z,20.15
2018-06-05T01:24:37.528Z,20.15
2018-06-05T01:27:11.709Z,20.22
2018-06-05T01:29:42.032Z,20.22
2018-06-05T01:32:12.274Z,20.18
2018-06-05T01:34:42.443Z,20.20
2018-06-05T01:37:12.704Z,20.21
2018-06-05T01:39:43.142Z,20.19
2018-06-05T01:42:13.254Z,20.19
2018-06-05T01:44:43.458Z,20.18
2018-06-05T01:47:13.694Z,20.15
2018-06-05T01:49:44.122Z,20.17
2018-06-05T01:52:14.198Z,20.14
2018-06-05T01:54:44.685Z,20.14
2018-06-05T01:57:15.034Z,20.12
2018-06-05T01:59:45.167Z,20.11
2018-06-05T02:02:15.497Z,20.12
2018-06-05T02:04:45.350Z,20.16
2018-06-05T02:07:15.734Z,20.16
2018-06-05T02:09:45.902Z,20.17
2018-06-05T02:12:16.143Z,20.16
2018-06-05T02:14:47.006Z,20.19
2018-06-05T02:17:17.346Z,20.19
2018-06-05T02:19:47.530Z,20.13
2018-06-05T02:22:17.750Z,20.10
2018-06-05T02:24:48.383Z,20.07
2018-06-05T02:27:18.907Z,20.06
2018-06-05T02:29:49.420Z,20.02
2018-06-05T02:32:19.462Z,20.01
2018-06-05T02:34:49.623Z,20.00
2018-06-05T02:37:19.740Z,19.99
2018-06-05T02:39:49.899Z,19.97
2018-06-05T02:42:19.995Z,19.99
2018-06-05T02:44:50.354Z,19.97
2018-06-05T02:47:20.574Z,19.99
2018-06-05T02:49:50.643Z,19.92
2018-06-05T02:52:20.908Z,19.88
2018-06-05T02:54:51.138Z,19.85
2018-06-05T02:57:21.282Z,19.82
2018-06-05T02:59:51.589Z,19.82
2018-06-05T03:02:21.831Z,19.83
2018-06-05T03:04:51.939Z,19.82
2018-06-05T03:07:22.193Z,19.84
2018-06-05T03:09:52.365Z,19.85
2018-06-05T03:12:22.382Z,19.87
2018-06-05T03:14:52.645Z,19.93
2018-06-05T03:17:22.826Z,19.96
2018-06-05T03:19:53.016Z,19.95
2018-06-05T03:22:23.270Z,19.91
2018-06-05T03:24:53.554Z,19.84
2018-06-05T03:27:24.227Z,19.80
2018-06-05T03:29:54.422Z,19.82
2018-06-05T03:32:24.680Z,19.84
2018-06-05T03:34:54.804Z,19.87
2018-06-05T03:37:25.496Z,19.91
2018-06-05T03:39:55.748Z,19.93
2018-06-05T03:42:28.594Z,19.97
2018-06-05T03:44:58.926Z,20.00
2018-06-05T03:47:29.292Z,20.04
2018-06-05T03:50:02.140Z,20.08
2018-06-05T03:52:32.588Z,20.05
2018-06-05T03:55:03.586Z,20.12
2018-06-05T03:57:33.699Z,20.12
2018-06-05T04:00:04.238Z,20.13
2018-06-05T04:02:34.835Z,20.16
2018-06-05T04:05:04.951Z,20.17
2018-06-05T04:07:35.066Z,20.14
2018-06-05T04:10:05.414Z,20.16
2018-06-05T04:12:35.546Z,20.14
2018-06-05T04:15:06.327Z,20.18
2018-06-05T04:17:36.480Z,20.16
2018-06-05T04:20:06.631Z,20.19
2018-06-05T04:22:36.972Z,20.26
2018-06-05T04:25:07.482Z,20.36
2018-06-05T04:27:40.540Z,20.32
2018-06-05T04:30:10.676Z,20.30
2018-06-05T04:32:40.778Z,20.31
2018-06-05T04:35:10.919Z,20.35
2018-06-05T04:37:41.113Z,20.40
2018-06-05T04:40:11.268Z,20.45
2018-06-05T04:42:42.001Z,20.44
2018-06-05T04:45:12.649Z,20.45
2018-06-05T04:47:42.850Z,20.52
2018-06-05T04:50:13.165Z,20.57
2018-06-05T04:52:43.335Z,20.57
2018-06-05T04:55:13.502Z,20.64
2018-06-05T04:57:43.718Z,20.71
2018-06-05T05:00:13.883Z,20.76
2018-06-05T05:02:44.259Z,20.84
2018-06-05T05:05:14.499Z,20.90
2018-06-05T05:07:44.726Z,20.96
2018-06-05T05:10:15.009Z,21.03
2018-06-05T05:12:45.358Z,21.09
2018-06-05T05:15:15.833Z,21.16
2018-06-05T05:17:46.138Z,21.23
2018-06-05T05:20:16.338Z,21.28
2018-06-05T05:22:46.628Z,21.32
2018-06-05T05:25:16.897Z,21.36
2018-06-05T05:27:47.103Z,21.43
2018-06-05T05:30:17.305Z,21.49
2018-06-05T05:32:47.755Z,21.56
2018-06-05T05:35:18.331Z,21.59
2018-06-05T05:37:48.416Z,21.66
2018-06-05T05:40:18.621Z,21.69
2018-06-05T05:42:48.686Z,21.76
2018-06-05T05:45:18.603Z,21.85
2018-06-05T05:47:48.675Z,21.90
2018-06-05T05:50:19.046Z,22.00
2018-06-05T05:52:49.430Z,22.05
2018-06-05T05:55:19.856Z,22.09
2018-06-05T05:57:50.194Z,22.16
2018-06-05T06:00:20.405Z,22.21
2018-06-05T06:02:50.583Z,22.27
2018-06-05T06:05:20.738Z,22.30
2018-06-05T06:07:50.902Z,22.33
2018-06-05T06:10:20.990Z,22.37
2018-06-05T06:12:51.354Z,22.42
2018-06-05T06:15:21.531Z,22.48
2018-06-05T06:17:51.962Z,22.54
2018-06-05T06:20:21.974Z,22.58
2018-06-05T06:22:52.124Z,22.65
2018-06-05T06:25:22.520Z,22.69
2018-06-05T06:27:52.778Z,22.73
2018-06-05T06:30:23.062Z,22.76
2018-06-05T06:32:53.774Z,22.81
2018-06-05T06:35:24.026Z,22.89
2018-06-05T06:37:54.183Z,22.95
2018-06-05T06:40:24.491Z,23.00
2018-06-05T06:42:54.804Z,23.06
2018-06-05T06:45:25.165Z,23.16
2018-06-05T06:47:55.320Z,23.21
2018-06-05T06:50:25.695Z,23.25
2018-06-05T06:52:55.790Z,23.26
2018-06-05T06:55:26.365Z,23.33
2018-06-05T06:57:56.551Z,23.36
2018-06-05T07:00:27.119Z,23.39
2018-06-05T07:02:57.523Z,23.42
2018-06-05T07:05:27.634Z,23.49
2018-06-05T07:07:57.956Z,23.65
2018-06-05T07:10:28.215Z,23.71
2018-06-05T07:12:58.550Z,23.71
2018-06-05T07:15:29.026Z,23.72
2018-06-05T07:17:59.391Z,23.77
2018-06-05T07:20:29.504Z,23.82
2018-06-05T07:22:59.697Z,23.91
2018-06-05T07:25:30.073Z,24.01
2018-06-05T07:28:00.468Z,24.09
2018-06-05T07:30:30.668Z,24.15
2018-06-05T07:33:01.082Z,24.20
2018-06-05T07:35:31.500Z,24.26
2018-06-05T07:38:01.793Z,24.30
2018-06-05T07:40:32.102Z,24.30
2018-06-05T07:43:02.387Z,24.33
2018-06-05T07:45:32.514Z,24.39
2018-06-05T07:48:02.887Z,24.47
2018-06-05T07:50:33.143Z,24.49
2018-06-05T07:53:03.327Z,24.55
2018-06-05T07:55:33.349Z,24.64
2018-06-05T07:58:03.743Z,24.70
2018-06-05T08:00:34.082Z,24.79
2018-06-05T08:03:04.411Z,24.87
2018-06-05T08:05:34.719Z,24.93
2018-06-05T08:08:04.826Z,24.89
2018-06-05T08:10:34.987Z,24.90
2018-06-05T08:13:05.048Z,24.96
2018-06-05T08:15:35.114Z,24.97
2018-06-05T08:18:05.289Z,25.04
2018-06-05T08:20:35.549Z,25.12
2018-06-05T08:23:06.150Z,25.13
2018-06-05T08:25:36.418Z,25.23
2018-06-05T08:28:08.418Z,25.33
2018-06-05T08:30:38.681Z,25.43
2018-06-05T08:33:08.587Z,25.39
2018-06-05T08:35:38.722Z,25.50
2018-06-05T08:38:09.122Z,25.60
2018-06-05T08:40:39.338Z,25.69
2018-06-05T08:43:09.614Z,25.79
2018-06-05T08:45:40.030Z,25.87
2018-06-05T08:48:10.141Z,25.92
2018-06-05T08:50:40.329Z,26.02
2018-06-05T08:53:10.404Z,25.95
2018-06-05T08:55:40.677Z,26.18
2018-06-05T08:58:10.733Z,26.24
2018-06-05T09:00:40.943Z,26.34
2018-06-05T09:03:13.739Z,26.43
2018-06-05T09:05:44.124Z,26.48
2018-06-05T09:08:14.298Z,26.55
2018-06-05T09:10:44.306Z,26.68
2018-06-05T09:13:15.072Z,26.81
2018-06-05T09:15:45.303Z,26.93
2018-06-05T09:18:15.517Z,27.07
2018-06-05T09:20:45.664Z,27.21
2018-06-05T09:23:15.716Z,27.17
2018-06-05T09:25:46.131Z,26.97
2018-06-05T09:28:16.219Z,27.08
2018-06-05T09:30:46.651Z,27.13
2018-06-05T09:33:17.174Z,27.16
2018-06-05T09:35:47.398Z,27.34
2018-06-05T09:38:17.524Z,27.46
2018-06-05T09:40:47.394Z,27.58
2018-06-05T09:43:17.651Z,27.62
2018-06-05T09:45:48.109Z,27.62
2018-06-05T09:48:18.098Z,27.66
2018-06-05T09:50:48.308Z,27.71
2018-06-05T09:53:18.649Z,27.76
2018-06-05T09:55:48.684Z,27.89
2018-06-05T09:58:18.951Z,27.88
2018-06-05T10:00:52.666Z,27.90
2018-06-05T10:03:22.649Z,27.92
2018-06-05T10:05:52.730Z,28.16
2018-06-05T10:08:22.951Z,28.30
2018-06-05T10:10:53.185Z,28.38
2018-06-05T10:13:23.530Z,28.34
2018-06-05T10:15:54.231Z,28.47
2018-06-05T10:18:24.452Z,28.68
2018-06-05T10:20:54.472Z,28.91
2018-06-05T10:23:24.708Z,29.09
2018-06-05T10:25:54.648Z,29.27
2018-06-05T10:28:25.246Z,29.44
2018-06-05T10:30:55.447Z,29.62
2018-06-05T10:33:25.789Z,29.69
2018-06-05T10:35:55.976Z,29.78
2018-06-05T10:38:26.274Z,29.68
2018-06-05T10:40:56.490Z,29.50
2018-06-05T10:43:26.650Z,29.65
2018-06-05T10:45:56.733Z,29.85
2018-06-05T10:48:26.706Z,29.99
2018-06-05T10:50:56.972Z,30.26
2018-06-05T10:53:27.076Z,30.40
2018-06-05T10:55:57.286Z,30.56
2018-06-05T10:58:27.536Z,30.77
2018-06-05T11:00:58.754Z,30.92
2018-06-05T11:03:28.896Z,31.14
2018-06-05T11:05:59.240Z,31.44
2018-06-05T11:08:29.403Z,31.59
2018-06-05T11:10:59.535Z,31.74
2018-06-05T11:13:30.060Z,31.62
2018-06-05T11:16:00.192Z,31.28
2018-06-05T11:18:30.362Z,31.38
2018-06-05T11:21:00.588Z,31.53
2018-06-05T11:23:31.462Z,31.57
2018-06-05T11:26:01.694Z,31.58
2018-06-05T11:28:32.067Z,31.53
2018-06-05T11:31:02.260Z,31.44
2018-06-05T11:33:32.349Z,31.46
2018-06-05T11:36:02.543Z,31.12
2018-06-05T11:38:32.602Z,31.13
2018-06-05T11:41:03.202Z,31.28
2018-06-05T11:43:33.158Z,31.72
2018-06-05T11:46:03.266Z,31.97
2018-06-05T11:48:39.924Z,32.26
2018-06-05T11:51:10.387Z,32.58
2018-06-05T11:53:40.810Z,32.45
2018-06-05T11:56:17.795Z,32.23
2018-06-05T11:58:48.004Z,32.09
2018-06-05T12:01:18.218Z,31.66
2018-06-05T12:03:48.592Z,31.61
2018-06-05T12:06:18.650Z,31.73
2018-06-05T12:08:48.822Z,32.02
2018-06-05T12:11:19.197Z,32.24
2018-06-05T12:13:49.341Z,32.26
2018-06-05T12:16:20.170Z,32.08
2018-06-05T12:18:50.397Z,32.05
2018-06-05T12:21:20.839Z,31.85
2018-06-05T12:23:51.093Z,31.71
2018-06-05T12:26:21.443Z,31.43
2018-06-05T12:28:51.671Z,31.39
2018-06-05T12:31:21.999Z,31.41
2018-06-05T12:33:52.215Z,31.32
2018-06-05T12:36:22.622Z,31.30
2018-06-05T12:38:52.870Z,31.52
2018-06-05T12:41:23.157Z,31.69
2018-06-05T12:43:53.222Z,31.73
2018-06-05T12:46:23.382Z,31.74
2018-06-05T12:48:53.573Z,31.67
2018-06-05T12:51:23.933Z,31.61
2018-06-05T12:53:54.145Z,31.64
2018-06-05T12:56:24.489Z,31.59
2018-06-05T12:58:54.717Z,31.43
2018-06-05T13:01:25.052Z,31.30
2018-06-05T13:03:55.496Z,31.17
2018-06-05T13:06:25.854Z,30.89
2018-06-05T13:08:56.119Z,30.48
2018-06-05T13:11:26.534Z,30.36
2018-06-05T13:13:56.702Z,30.26
2018-06-05T13:16:27.042Z,30.36
2018-06-05T13:18:57.159Z,30.24
2018-06-05T13:21:27.354Z,30.18
2018-06-05T13:23:57.687Z,30.07
2018-06-05T13:26:27.882Z,30.33
2018-06-05T13:28:58.079Z,30.20
2018-06-05T13:31:28.282Z,30.29
2018-06-05T13:33:58.405Z,30.48
2018-06-05T13:36:28.504Z,30.73
2018-06-05T13:38:58.731Z,31.30
2018-06-05T13:41:28.877Z,31.71
2018-06-05T13:43:59.113Z,32.18
2018-06-05T13:46:29.828Z,32.01
2018-06-05T13:48:59.975Z,31.28
2018-06-05T13:51:30.172Z,30.68
2018-06-05T13:54:00.457Z,30.46
2018-06-05T13:56:31.024Z,31.00
2018-06-05T13:59:01.111Z,31.55
2018-06-05T14:01:31.337Z,32.00
2018-06-05T14:04:01.588Z,32.33
2018-06-05T14:06:32.124Z,32.32
2018-06-05T14:09:02.556Z,32.52
2018-06-05T14:11:32.541Z,32.73
2018-06-05T14:14:02.834Z,33.22
2018-06-05T14:16:32.894Z,33.31
2018-06-05T14:19:03.268Z,33.56
2018-06-05T14:21:33.554Z,33.86
2018-06-05T14:24:03.876Z,33.80
2018-06-05T14:26:33.851Z,33.53
2018-06-05T14:29:04.220Z,33.55
2018-06-05T14:31:34.394Z,33.47
2018-06-05T14:34:04.659Z,33.74
2018-06-05T14:36:34.986Z,33.70
2018-06-05T14:39:11.841Z,33.72
2018-06-05T14:41:42.167Z,33.75
2018-06-05T14:44:12.609Z,33.63
2018-06-05T14:46:42.786Z,33.63
2018-06-05T14:49:12.937Z,33.54
2018-06-05T14:51:43.014Z,33.54
2018-06-05T14:54:13.293Z,33.46
2018-06-05T14:56:43.539Z,33.76
2018-06-05T14:59:13.786Z,33.75
2018-06-05T15:01:43.971Z,33.90
2018-06-05T15:04:13.987Z,34.11
2018-06-05T15:06:44.196Z,33.82
2018-06-05T15:09:14.506Z,33.73
2018-06-05T15:11:44.566Z,33.59
2018-06-05T15:14:14.968Z,33.23
2018-06-05T15:16:45.258Z,32.75
2018-06-05T15:19:15.422Z,32.09
2018-06-05T15:21:45.513Z,32.19
2018-06-05T15:24:15.653Z,31.96
2018-06-05T15:26:45.881Z,31.78
2018-06-05T15:29:16.206Z,31.77
2018-06-05T15:31:46.376Z,31.26
2018-06-05T15:34:16.439Z,31.05
2018-06-05T15:36:46.657Z,30.62
2018-06-05T15:39:16.687Z,30.22
2018-06-05T15:41:47.095Z,30.15
2018-06-05T15:44:17.241Z,30.19
2018-06-05T15:46:47.464Z,29.96
2018-06-05T15:49:17.550Z,30.00
2018-06-05T15:51:47.798Z,29.60
2018-06-05T15:54:17.802Z,29.45
2018-06-05T15:56:48.231Z,29.49
2018-06-05T15:59:18.457Z,29.32
2018-06-05T16:01:48.473Z,29.27
2018-06-05T16:04:18.886Z,29.37
2018-06-05T16:06:49.166Z,29.40
2018-06-05T16:09:19.344Z,29.41
2018-06-05T16:11:49.582Z,29.41
2018-06-05T16:14:19.846Z,29.45
2018-06-05T16:16:49.918Z,29.39
2018-06-05T16:19:20.078Z,29.37
2018-06-05T16:21:50.286Z,29.15
2018-06-05T16:24:20.370Z,29.10
2018-06-05T16:26:50.696Z,28.97
2018-06-05T16:29:20.819Z,28.82
2018-06-05T16:31:51.039Z,28.76
2018-06-05T16:34:21.154Z,28.58
2018-06-05T16:36:51.379Z,28.58
2018-06-05T16:39:21.656Z,28.61
2018-06-05T16:41:52.962Z,28.68
2018-06-05T16:44:23.082Z,28.78
2018-06-05T16:46:53.096Z,28.74
2018-06-05T16:49:23.226Z,28.82
2018-06-05T16:51:53.159Z,28.92
2018-06-05T16:54:23.342Z,28.99
2018-06-05T16:56:53.535Z,28.88
2018-06-05T16:59:23.796Z,28.89
2018-06-05T17:01:54.019Z,28.91
2018-06-05T17:04:24.270Z,28.68
2018-06-05T17:06:54.591Z,28.89
2018-06-05T17:09:24.474Z,28.93
2018-06-05T17:11:54.666Z,28.98
2018-06-05T17:14:24.936Z,29.02
2018-06-05T17:16:55.134Z,29.09
2018-06-05T17:19:25.280Z,29.12
2018-06-05T17:21:55.431Z,29.10
2018-06-05T17:24:25.825Z,29.09
2018-06-05T17:26:55.951Z,28.94
2018-06-05T17:29:26.154Z,28.83
2018-06-05T17:31:56.546Z,28.64
2018-06-05T17:34:26.606Z,28.50
2018-06-05T17:36:56.726Z,28.41
2018-06-05T17:39:26.957Z,28.28
2018-06-05T17:41:57.150Z,28.18
2018-06-05T17:44:27.499Z,27.95
2018-06-05T17:46:57.732Z,27.88
2018-06-05T17:49:27.785Z,27.80
2018-06-05T17:51:58.016Z,27.66
2018-06-05T17:54:28.283Z,27.56
2018-06-05T17:56:58.730Z,27.44
2018-06-05T17:59:28.810Z,27.36
2018-06-05T18:01:58.970Z,27.35
2018-06-05T18:04:29.090Z,27.26
2018-06-05T18:06:59.406Z,27.22
2018-06-05T18:09:29.283Z,27.18
2018-06-05T18:11:59.763Z,27.21
2018-06-05T18:14:30.163Z,27.09
2018-06-05T18:17:00.713Z,27.09
2018-06-05T18:19:37.413Z,27.06
2018-06-05T18:22:07.750Z,26.99
2018-06-05T18:24:37.895Z,26.93
2018-06-05T18:27:08.339Z,26.89
2018-06-05T18:29:38.492Z,26.82
2018-06-05T18:32:09.127Z,26.73
2018-06-05T18:34:39.315Z,26.69
2018-06-05T18:37:09.532Z,26.64
2018-06-05T18:39:40.082Z,26.58
2018-06-05T18:42:10.313Z,26.52
2018-06-05T18:44:40.555Z,26.39
2018-06-05T18:47:10.762Z,26.32
2018-06-05T18:49:40.955Z,26.28
2018-06-05T18:52:11.090Z,26.25
2018-06-05T18:54:41.433Z,26.20
2018-06-05T18:57:11.518Z,26.18
2018-06-05T18:59:41.909Z,26.12
2018-06-05T19:02:12.198Z,26.06
2018-06-05T19:04:42.484Z,26.03
2018-06-05T19:07:12.763Z,26.00
2018-06-05T19:09:43.352Z,25.92
2018-06-05T19:12:13.717Z,25.88
2018-06-05T19:14:44.145Z,25.83
2018-06-05T19:17:14.212Z,25.77
2018-06-05T19:19:44.597Z,25.74
2018-06-05T19:22:14.713Z,25.70
2018-06-05T19:24:44.954Z,25.66
2018-06-05T19:27:15.348Z,25.62
2018-06-05T19:29:46.019Z,25.53
2018-06-05T19:32:17.046Z,25.52
2018-06-05T19:34:47.364Z,25.48
2018-06-05T19:37:17.527Z,25.47
2018-06-05T19:39:48.100Z,25.44
2018-06-05T19:42:18.431Z,25.43
2018-06-05T19:44:48.539Z,25.38
2018-06-05T19:47:18.833Z,25.35
2018-06-05T19:49:49.162Z,25.31
2018-06-05T19:52:19.407Z,25.28
2018-06-05T19:54:49.924Z,25.26
2018-06-05T19:57:20.155Z,25.24
2018-06-05T19:59:50.420Z,25.23
2018-06-05T20:02:20.773Z,25.18
2018-06-05T20:04:52.079Z,25.12
2018-06-05T20:07:22.278Z,25.09
2018-06-05T20:09:52.629Z,25.07
2018-06-05T20:12:23.008Z,25.03
2018-06-05T20:14:53.387Z,25.02
2018-06-05T20:17:23.679Z,25.03
2018-06-05T20:19:53.819Z,24.98
2018-06-05T20:22:24.952Z,24.92
2018-06-05T20:24:55.256Z,24.88
2018-06-05T20:27:25.386Z,24.87
2018-06-05T20:29:55.607Z,24.84
2018-06-05T20:32:26.763Z,24.80
2018-06-05T20:34:57.226Z,24.78
2018-06-05T20:37:28.015Z,24.77
2018-06-05T20:39:58.335Z,24.72
2018-06-05T20:42:29.156Z,24.66
2018-06-05T20:44:59.671Z,24.60
2018-06-05T20:47:30.741Z,24.53
2018-06-05T20:50:00.975Z,24.53
2018-06-05T20:52:31.094Z,24.50
2018-06-05T20:55:01.907Z,24.48
2018-06-05T20:57:32.406Z,24.45
2018-06-05T21:00:02.834Z,24.42
2018-06-05T21:02:33.211Z,24.38
2018-06-05T21:05:03.561Z,24.29
2018-06-05T21:07:34.062Z,24.25
2018-06-05T21:10:04.479Z,24.23
2018-06-05T21:12:34.867Z,24.16
2018-06-05T21:15:05.109Z,24.11
2018-06-05T21:17:35.360Z,24.08
2018-06-05T21:20:06.797Z,24.03
2018-06-05T21:22:37.209Z,23.97
2018-06-05T21:25:07.714Z,23.94
2018-06-05T21:27:38.215Z,23.91
2018-06-05T21:30:08.903Z,23.84
2018-06-05T21:32:39.926Z,23.80
2018-06-05T21:35:10.194Z,23.72
2018-06-05T21:37:40.565Z,23.65
2018-06-05T21:40:10.842Z,23.59
2018-06-05T21:42:41.075Z,23.56
2018-06-05T21:45:11.222Z,23.53
2018-06-05T21:47:41.749Z,23.49
2018-06-05T21:50:11.967Z,23.46
2018-06-05T21:52:48.681Z,23.41
2018-06-05T21:55:21.713Z,23.39
2018-06-05T21:57:51.824Z,23.34
2018-06-05T22:00:23.108Z,23.31
2018-06-05T22:02:53.147Z,23.30
2018-06-05T22:05:23.422Z,23.25
2018-06-05T22:07:53.650Z,23.18
2018-06-05T22:10:23.731Z,23.14
2018-06-05T22:12:54.062Z,23.10
2018-06-05T22:15:24.402Z,23.13
2018-06-05T22:17:54.613Z,23.07
2018-06-05T22:20:24.841Z,23.07
2018-06-05T22:22:54.910Z,23.05
2018-06-05T22:25:25.180Z,23.02
2018-06-05T22:27:55.193Z,22.99
2018-06-05T22:30:25.620Z,22.98
2018-06-05T22:32:55.738Z,22.98
2018-06-05T22:35:25.910Z,22.96
2018-06-05T22:37:55.974Z,22.94
2018-06-05T22:40:26.209Z,22.89
2018-06-05T22:42:56.538Z,22.86
2018-06-05T22:45:26.675Z,22.85
2018-06-05T22:47:56.774Z,22.84
2018-06-05T22:50:26.936Z,22.81
2018-06-05T22:52:57.391Z,22.77
2018-06-05T22:55:27.584Z,22.74
2018-06-05T22:57:57.911Z,22.73
2018-06-05T23:00:32.996Z,22.73
2018-06-05T23:03:03.094Z,22.73
2018-06-05T23:05:33.378Z,22.70
2018-06-05T23:08:03.431Z,22.68
2018-06-05T23:10:33.575Z,22.64
2018-06-05T23:13:03.679Z,22.63
2018-06-05T23:15:33.923Z,22.58
2018-06-05T23:18:04.143Z,22.54
2018-06-05T23:20:34.368Z,22.53
2018-06-05T23:23:04.579Z,22.49
2018-06-05T23:25:34.645Z,22.47
2018-06-05T23:28:04.671Z,22.45
2018-06-05T23:30:36.778Z,22.44
2018-06-05T23:33:06.971Z,22.24
2018-06-05T23:35:37.341Z,22.39
2018-06-05T23:38:07.479Z,22.37
2018-06-05T23:40:37.670Z,22.36
2018-06-05T23:43:08.961Z,22.33
2018-06-05T23:45:39.040Z,22.32
2018-06-05T23:48:09.328Z,22.31
2018-06-05T23:50:39.398Z,22.31
2018-06-05T23:53:09.643Z,22.32
2018-06-05T23:55:40.794Z,22.29
2018-06-05T23:58:11.288Z,22.24
